Time;durP1;ratioP1;P1;durP2;ratioP2;P2;SDS_P1;SDS_P2;PMS_P1;PMS_P2;Temp;Humidity;BMP_temperature;BMP_pressure;BME280_temperature;BME280_humidity;BME280_pressure;Samples;Min_cycle;Max_cycle;Signal;HPM_P1;HPM_P2
2024/01/17 00:00:19;;;;;;;8.98;8.07;;;-2.40;99.90;;;;;;5026475;28;20423;-73
2024/01/17 00:02:46;;;;;;;11.05;8.07;;;-2.40;99.90;;;;;;5031958;28;20424;-73
2024/01/17 00:05:13;;;;;;;10.70;8.20;;;-2.50;99.90;;;;;;5034695;28;20434;-74
2024/01/17 00:07:39;;;;;;;9.32;8.05;;;-2.50;99.90;;;;;;5028319;28;20438;-73
2024/01/17 00:10:08;;;;;;;10.48;8.50;;;-2.50;99.90;;;;;;5029036;28;20425;-76
2024/01/17 00:12:35;;;;;;;9.27;7.80;;;-2.50;99.90;;;;;;5042899;28;20557;-75
2024/01/17 00:15:04;;;;;;;8.95;8.05;;;-2.50;99.90;;;;;;5030841;28;20908;-74
2024/01/17 00:17:31;;;;;;;10.67;8.40;;;-2.50;99.90;;;;;;5036134;28;20422;-75
2024/01/17 00:19:57;;;;;;;9.38;8.00;;;-2.50;99.90;;;;;;5038364;28;20788;-72
2024/01/17 00:22:24;;;;;;;9.65;8.65;;;-2.60;99.90;;;;;;5033814;28;20431;-76
2024/01/17 00:24:51;;;;;;;9.70;8.15;;;-2.50;99.90;;;;;;5029376;28;20952;-73
2024/01/17 00:27:18;;;;;;;10.00;8.73;;;-2.50;99.90;;;;;;5032854;28;20963;-73
2024/01/17 00:29:45;;;;;;;10.13;8.30;;;-2.50;99.90;;;;;;5029153;28;20516;-73
2024/01/17 00:32:13;;;;;;;9.70;8.68;;;-2.50;99.90;;;;;;5031823;28;20415;-75
2024/01/17 00:34:40;;;;;;;9.80;7.82;;;-2.50;99.90;;;;;;5033934;28;20413;-73
2024/01/17 00:37:08;;;;;;;10.40;8.02;;;-2.50;99.90;;;;;;5031196;28;20797;-74
2024/01/17 00:39:35;;;;;;;8.85;8.00;;;-2.50;99.90;;;;;;5033346;28;20417;-73
2024/01/17 00:42:02;;;;;;;12.82;8.40;;;-2.50;99.90;;;;;;5031906;28;20422;-74
2024/01/17 00:44:29;;;;;;;9.93;7.70;;;-2.60;99.90;;;;;;5035021;28;20479;-74
2024/01/17 00:46:56;;;;;;;9.70;7.70;;;-2.60;99.90;;;;;;5032264;28;20454;-73
2024/01/17 00:49:24;;;;;;;11.73;8.00;;;-2.60;99.90;;;;;;5029285;28;20906;-74
2024/01/17 00:51:50;;;;;;;10.00;8.10;;;-2.60;99.90;;;;;;5028861;28;20431;-75
2024/01/17 00:54:17;;;;;;;10.18;8.25;;;-2.60;99.90;;;;;;5029174;28;20437;-75
2024/01/17 00:56:44;;;;;;;9.25;8.35;;;-2.70;99.90;;;;;;5037292;28;20446;-74
2024/01/17 00:59:10;;;;;;;9.00;8.10;;;-2.70;99.90;;;;;;5037184;28;20411;-75
2024/01/17 01:01:37;;;;;;;9.20;7.60;;;-2.70;99.90;;;;;;5031210;28;20419;-75
2024/01/17 01:04:04;;;;;;;8.63;7.75;;;-2.70;99.90;;;;;;5030261;28;20438;-75
2024/01/17 01:06:32;;;;;;;9.15;8.00;;;-2.70;99.90;;;;;;5035341;28;20458;-75
2024/01/17 01:08:59;;;;;;;11.40;8.40;;;-2.70;99.90;;;;;;5028591;28;20415;-74
2024/01/17 01:11:30;;;;;;;9.32;7.60;;;-2.70;99.90;;;;;;5031156;28;20446;-75
2024/01/17 01:13:56;;;;;;;8.60;7.70;;;-2.70;99.90;;;;;;5031407;28;20569;-75
2024/01/17 01:16:23;;;;;;;8.80;7.90;;;-2.80;99.90;;;;;;5033791;28;20411;-74
2024/01/17 01:18:50;;;;;;;9.17;7.90;;;-2.80;99.90;;;;;;5028679;28;20423;-75
2024/01/17 01:21:17;;;;;;;8.98;8.07;;;-2.80;99.90;;;;;;5027462;28;20431;-75
2024/01/17 01:23:45;;;;;;;8.50;7.30;;;-2.80;99.90;;;;;;5029184;28;20418;-74
2024/01/17 01:26:13;;;;;;;8.75;7.60;;;-2.80;99.90;;;;;;5036027;28;20422;-75
2024/01/17 01:28:40;;;;;;;9.50;8.50;;;-2.80;99.90;;;;;;5030035;28;20423;-74
2024/01/17 01:31:07;;;;;;;9.30;8.30;;;-2.80;99.90;;;;;;5027790;28;20418;-74
2024/01/17 01:33:34;;;;;;;10.90;8.63;;;-2.80;99.90;;;;;;5039385;28;20417;-75
2024/01/17 01:36:00;;;;;;;10.70;8.52;;;-2.80;99.90;;;;;;5027830;28;20501;-75
2024/01/17 01:38:27;;;;;;;10.48;8.90;;;-2.80;99.90;;;;;;5022091;28;20482;-75
2024/01/17 01:40:58;;;;;;;9.77;8.35;;;-2.80;99.90;;;;;;5030190;28;20422;-75
2024/01/17 01:43:25;;;;;;;11.98;9.15;;;-2.80;99.90;;;;;;5030346;28;20421;-73
2024/01/17 01:46:09;;;;;;;10.10;8.75;;;-2.80;99.90;;;;;;5028363;28;20434;-75
2024/01/17 01:48:36;;;;;;;10.95;8.60;;;-2.80;99.90;;;;;;5036777;28;20423;-75
2024/01/17 01:51:04;;;;;;;10.48;8.80;;;-2.80;99.90;;;;;;5028245;28;20944;-74
2024/01/17 01:53:33;;;;;;;10.00;8.70;;;-2.80;99.90;;;;;;5030155;28;20418;-74
2024/01/17 01:56:02;;;;;;;9.23;8.32;;;-2.90;99.90;;;;;;5027721;28;20814;-74
2024/01/17 01:58:30;;;;;;;11.00;9.13;;;-2.90;99.90;;;;;;5024164;28;20465;-75
2024/01/17 02:00:59;;;;;;;11.77;8.98;;;-3.00;99.90;;;;;;5031678;28;20430;-75
2024/01/17 02:03:27;;;;;;;10.05;8.60;;;-3.00;99.90;;;;;;5031839;28;20416;-74
2024/01/17 02:05:54;;;;;;;9.80;8.60;;;-3.00;99.90;;;;;;5034710;28;20438;-75
2024/01/17 02:08:21;;;;;;;10.40;8.45;;;-3.00;99.90;;;;;;5030935;28;20441;-74
2024/01/17 02:10:47;;;;;;;9.57;8.50;;;-3.00;99.90;;;;;;5028050;28;20423;-75
2024/01/17 02:13:16;;;;;;;10.53;8.30;;;-3.00;99.90;;;;;;5029649;28;20438;-74
2024/01/17 02:15:42;;;;;;;11.17;9.30;;;-3.00;99.90;;;;;;5027566;28;20407;-75
2024/01/17 02:18:09;;;;;;;9.40;8.40;;;-3.00;99.90;;;;;;5039615;28;20414;-73
2024/01/17 02:20:36;;;;;;;10.10;9.05;;;-3.00;99.90;;;;;;5029865;28;20953;-74
2024/01/17 02:23:21;;;;;;;11.30;9.18;;;-3.00;99.90;;;;;;5032143;28;20415;-75
2024/01/17 02:25:49;;;;;;;11.10;8.77;;;-3.00;99.90;;;;;;5040812;28;20583;-75
2024/01/17 02:28:16;;;;;;;9.82;8.82;;;-3.00;99.90;;;;;;5029615;28;20425;-75
2024/01/17 02:30:44;;;;;;;10.50;9.20;;;-3.10;99.90;;;;;;5023884;28;20426;-76
2024/01/17 02:33:10;;;;;;;9.85;8.85;;;-3.10;99.90;;;;;;5034190;28;20786;-75
2024/01/17 02:35:38;;;;;;;10.50;8.60;;;-3.10;99.90;;;;;;5026646;28;20431;-75
2024/01/17 02:38:05;;;;;;;9.90;8.90;;;-3.10;99.90;;;;;;5028432;28;20426;-75
2024/01/17 02:40:31;;;;;;;9.85;8.85;;;-3.10;99.90;;;;;;5034497;28;20418;-74
2024/01/17 02:43:00;;;;;;;10.40;9.23;;;-3.10;99.90;;;;;;5027392;28;20920;-74
2024/01/17 02:45:26;;;;;;;9.98;8.98;;;-3.10;99.90;;;;;;5033935;28;20431;-75
2024/01/17 02:47:53;;;;;;;10.00;9.02;;;-3.10;99.90;;;;;;5028352;28;20856;-76
2024/01/17 02:50:20;;;;;;;10.82;9.13;;;-3.10;99.90;;;;;;5030918;28;20460;-75
2024/01/17 02:52:47;;;;;;;10.40;9.25;;;-3.10;99.90;;;;;;5027417;28;20419;-75
2024/01/17 02:55:15;;;;;;;11.93;10.10;;;-3.10;99.90;;;;;;5026853;28;20418;-75
2024/01/17 02:57:42;;;;;;;9.80;8.80;;;-3.10;99.90;;;;;;5030769;28;20421;-75
2024/01/17 03:00:11;;;;;;;10.68;9.00;;;-3.00;99.90;;;;;;5027727;28;20436;-75
2024/01/17 03:02:39;;;;;;;11.30;9.80;;;-3.10;99.90;;;;;;5026785;28;20766;-73
2024/01/17 03:05:07;;;;;;;13.57;9.20;;;-3.10;99.90;;;;;;5028046;28;20430;-73
2024/01/17 03:07:34;;;;;;;11.75;9.40;;;-3.10;99.90;;;;;;5032399;28;20430;-73
2024/01/17 03:10:01;;;;;;;11.30;9.60;;;-3.10;99.90;;;;;;5031674;28;20415;-73
2024/01/17 03:12:27;;;;;;;9.73;8.73;;;-3.10;99.90;;;;;;5026663;28;20430;-76
2024/01/17 03:14:54;;;;;;;10.73;9.03;;;-3.10;99.90;;;;;;5027092;28;20426;-75
2024/01/17 03:17:22;;;;;;;10.95;9.05;;;-3.10;99.90;;;;;;5027492;28;20849;-75
2024/01/17 03:19:49;;;;;;;10.20;9.10;;;-3.10;99.90;;;;;;5033023;28;20914;-75
2024/01/17 03:22:16;;;;;;;11.57;9.20;;;-3.10;99.90;;;;;;5031225;28;20422;-75
2024/01/17 03:24:45;;;;;;;11.48;8.73;;;-3.10;99.90;;;;;;5025776;28;20797;-74
2024/01/17 03:27:12;;;;;;;9.70;8.70;;;-3.10;99.90;;;;;;5026406;28;20794;-75
2024/01/17 03:29:39;;;;;;;12.95;9.48;;;-3.10;99.90;;;;;;5025638;28;20430;-74
2024/01/17 03:32:06;;;;;;;10.55;8.90;;;-3.10;99.90;;;;;;5028408;28;20419;-75
2024/01/17 03:34:34;;;;;;;10.05;8.80;;;-3.10;99.90;;;;;;5033839;28;20958;-75
2024/01/17 03:37:00;;;;;;;10.15;9.10;;;-3.10;99.90;;;;;;5031669;28;20477;-75
2024/01/17 03:39:27;;;;;;;12.23;9.10;;;-3.00;99.90;;;;;;5028194;28;20789;-74
2024/01/17 03:41:54;;;;;;;11.43;9.48;;;-3.00;99.90;;;;;;5039192;28;20413;-75
2024/01/17 03:44:22;;;;;;;12.00;9.10;;;-3.00;99.90;;;;;;5029276;28;20423;-75
2024/01/17 03:46:49;;;;;;;9.43;8.40;;;-3.00;99.90;;;;;;5030802;28;20423;-74
2024/01/17 03:49:16;;;;;;;11.85;8.63;;;-3.00;99.90;;;;;;5029044;28;20435;-75
2024/01/17 03:51:44;;;;;;;10.32;8.50;;;-2.90;99.90;;;;;;5030159;28;20437;-74
2024/01/17 03:54:11;;;;;;;11.15;9.10;;;-2.90;99.90;;;;;;5031152;28;20921;-74
2024/01/17 03:56:37;;;;;;;9.38;8.20;;;-2.90;99.90;;;;;;5032890;28;20411;-73
2024/01/17 03:59:05;;;;;;;9.80;8.80;;;-2.90;99.90;;;;;;5029487;28;20415;-73
2024/01/17 04:01:32;;;;;;;12.52;9.38;;;-2.90;99.90;;;;;;5035639;28;20472;-74
2024/01/17 04:03:59;;;;;;;9.63;8.13;;;-2.90;99.90;;;;;;5029795;28;20519;-73
2024/01/17 04:06:28;;;;;;;11.27;8.67;;;-2.90;99.90;;;;;;5031900;28;20431;-75
2024/01/17 04:08:57;;;;;;;12.23;9.57;;;-2.90;99.90;;;;;;5034178;28;20426;-73
2024/01/17 04:11:24;;;;;;;9.45;8.45;;;-2.90;99.90;;;;;;5038487;28;20415;-74
2024/01/17 04:13:51;;;;;;;9.77;8.77;;;-2.90;99.90;;;;;;5055111;22;20442;-64
2024/01/17 04:16:18;;;;;;;9.50;8.50;;;-2.90;99.90;;;;;;5027096;28;20456;-65
2024/01/17 04:18:45;;;;;;;10.43;9.05;;;-2.90;99.90;;;;;;5032416;28;20575;-65
2024/01/17 04:21:18;;;;;;;11.00;9.90;;;-2.90;99.90;;;;;;5033701;28;20440;-65
2024/01/17 04:23:45;;;;;;;9.68;8.68;;;-2.90;99.90;;;;;;5026076;28;20864;-64
2024/01/17 04:26:23;;;;;;;9.65;8.48;;;-2.90;99.90;;;;;;5020898;28;20430;-64
2024/01/17 04:28:50;;;;;;;11.30;8.60;;;-2.90;99.90;;;;;;5024768;28;20449;-65
2024/01/17 04:31:24;;;;;;;10.30;9.20;;;-2.90;99.90;;;;;;5031928;28;20497;-65
2024/01/17 04:33:51;;;;;;;10.57;8.57;;;-2.90;99.90;;;;;;5027548;28;21023;-64
2024/01/17 04:36:18;;;;;;;11.20;8.97;;;-2.90;99.90;;;;;;5021069;28;20886;-64
2024/01/17 04:38:45;;;;;;;10.18;9.05;;;-3.00;99.90;;;;;;5026658;28;20437;-65
2024/01/17 04:41:13;;;;;;;10.10;8.50;;;-2.90;99.90;;;;;;5025785;28;20510;-65
2024/01/17 04:43:42;;;;;;;9.85;8.80;;;-2.90;99.90;;;;;;5023829;28;20414;-65
2024/01/17 04:46:12;;;;;;;10.05;8.82;;;-2.90;99.90;;;;;;5024225;28;20491;-65
2024/01/17 04:48:39;;;;;;;10.18;8.80;;;-2.90;99.90;;;;;;5025207;28;20431;-65
2024/01/17 04:51:06;;;;;;;10.25;9.15;;;-2.90;99.90;;;;;;5042231;28;20444;-65
2024/01/17 04:53:33;;;;;;;11.38;9.07;;;-2.90;99.90;;;;;;5049229;28;20409;-65
2024/01/17 04:56:01;;;;;;;10.35;8.68;;;-2.90;99.90;;;;;;5045701;28;20418;-66
2024/01/17 04:58:28;;;;;;;11.40;9.07;;;-2.90;99.90;;;;;;5050250;28;20425;-65
2024/01/17 05:00:56;;;;;;;10.60;9.50;;;-2.90;99.90;;;;;;5052225;28;20454;-65
2024/01/17 05:03:23;;;;;;;10.80;8.88;;;-2.90;99.90;;;;;;5042886;28;20431;-67
2024/01/17 05:05:50;;;;;;;10.02;8.90;;;-2.90;99.90;;;;;;5031316;28;20870;-67
2024/01/17 05:08:16;;;;;;;11.80;9.10;;;-3.00;99.90;;;;;;5031404;28;20545;-65
2024/01/17 05:10:44;;;;;;;12.25;9.27;;;-3.00;99.90;;;;;;5038537;28;20427;-66
2024/01/17 05:13:11;;;;;;;9.07;8.18;;;-3.00;99.90;;;;;;5041659;28;20422;-65
2024/01/17 05:15:38;;;;;;;9.32;7.85;;;-2.90;99.90;;;;;;5039882;28;20459;-65
2024/01/17 05:18:08;;;;;;;11.55;9.20;;;-2.90;99.90;;;;;;5035840;28;20455;-66
2024/01/17 05:20:35;;;;;;;10.85;8.52;;;-2.90;99.90;;;;;;5043775;28;20422;-66
2024/01/17 05:23:02;;;;;;;10.40;8.77;;;-3.00;99.90;;;;;;5040053;28;20807;-66
2024/01/17 05:25:29;;;;;;;10.02;9.02;;;-2.90;99.90;;;;;;5038416;28;20427;-68
2024/01/17 05:27:56;;;;;;;11.13;8.70;;;-2.90;99.90;;;;;;5043368;28;20429;-65
2024/01/17 05:30:24;;;;;;;11.68;9.10;;;-2.90;99.90;;;;;;5038513;28;20906;-66
2024/01/17 05:32:51;;;;;;;10.43;8.75;;;-2.80;99.90;;;;;;5031912;28;20438;-65
2024/01/17 05:35:20;;;;;;;9.00;8.10;;;-2.80;99.90;;;;;;5029132;28;20419;-65
2024/01/17 05:37:47;;;;;;;9.35;8.45;;;-2.80;99.90;;;;;;5032182;28;20669;-66
2024/01/17 05:40:14;;;;;;;9.30;8.40;;;-2.80;99.90;;;;;;5028103;28;20423;-65
2024/01/17 05:42:42;;;;;;;10.27;8.88;;;-2.80;99.90;;;;;;5031662;28;20415;-65
2024/01/17 05:45:09;;;;;;;9.35;8.27;;;-2.70;99.90;;;;;;5023487;28;20460;-66
2024/01/17 05:47:37;;;;;;;10.43;8.23;;;-2.70;99.90;;;;;;5030711;28;20533;-64
2024/01/17 05:50:04;;;;;;;10.03;8.37;;;-2.70;99.90;;;;;;5022135;28;20440;-65
2024/01/17 05:52:32;;;;;;;10.73;9.23;;;-2.70;99.90;;;;;;5027232;28;20411;-65
2024/01/17 05:54:59;;;;;;;14.00;9.30;;;-2.70;99.90;;;;;;5021861;28;20450;-67
2024/01/17 05:57:26;;;;;;;9.90;8.50;;;-2.70;99.90;;;;;;5020103;28;20431;-64
2024/01/17 05:59:52;;;;;;;10.40;8.90;;;-2.70;99.90;;;;;;5025478;28;20417;-66
2024/01/17 06:02:19;;;;;;;11.75;8.65;;;-2.70;99.90;;;;;;5026715;28;20484;-67
2024/01/17 06:04:46;;;;;;;10.95;8.93;;;-2.70;99.90;;;;;;5034554;28;20957;-68
2024/01/17 06:07:14;;;;;;;10.45;8.38;;;-2.70;99.90;;;;;;5025819;28;20426;-65
2024/01/17 06:09:43;;;;;;;9.30;8.20;;;-2.70;99.90;;;;;;5024923;28;20440;-64
2024/01/17 06:12:10;;;;;;;11.40;8.85;;;-2.70;99.90;;;;;;5020741;28;20502;-64
2024/01/17 06:14:36;;;;;;;9.50;8.50;;;-2.60;99.90;;;;;;5025706;28;20411;-65
2024/01/17 06:17:02;;;;;;;11.00;8.73;;;-2.60;99.90;;;;;;5026963;28;20463;-64
2024/01/17 06:19:29;;;;;;;12.18;9.07;;;-2.60;99.90;;;;;;5024295;28;20415;-64
2024/01/17 06:21:56;;;;;;;12.35;8.82;;;-2.60;99.90;;;;;;5023205;28;20427;-65
2024/01/17 06:24:22;;;;;;;12.90;9.13;;;-2.60;99.90;;;;;;5025058;28;20493;-67
2024/01/17 06:26:51;;;;;;;12.77;9.60;;;-2.60;99.90;;;;;;5026295;28;20427;-66
2024/01/17 06:29:17;;;;;;;12.65;9.38;;;-2.50;99.90;;;;;;5023928;28;20622;-64
2024/01/17 06:31:44;;;;;;;10.77;8.95;;;-2.50;99.90;;;;;;5017721;28;20546;-62
2024/01/17 06:34:11;;;;;;;11.77;9.40;;;-2.50;99.90;;;;;;5022504;28;20430;-66
2024/01/17 06:36:39;;;;;;;11.52;9.70;;;-2.40;99.90;;;;;;5025348;28;20427;-70
2024/01/17 06:39:06;;;;;;;11.57;9.60;;;-2.30;99.90;;;;;;5035682;28;20498;-71
2024/01/17 06:41:33;;;;;;;12.55;9.73;;;-2.30;99.90;;;;;;5037342;28;20450;-71
2024/01/17 06:44:01;;;;;;;10.10;8.60;;;-2.30;99.90;;;;;;5029835;28;20412;-63
2024/01/17 06:46:27;;;;;;;11.48;8.90;;;-2.20;99.90;;;;;;5015368;28;20439;-62
2024/01/17 06:48:54;;;;;;;10.95;8.60;;;-2.20;99.90;;;;;;5034827;28;20442;-63
2024/01/17 06:51:21;;;;;;;10.45;8.82;;;-2.20;99.90;;;;;;5029840;28;20434;-63
2024/01/17 06:53:48;;;;;;;11.63;8.57;;;-2.20;99.90;;;;;;5022211;28;20442;-63
2024/01/17 06:56:14;;;;;;;11.55;9.25;;;-2.20;99.90;;;;;;5027828;28;20406;-64
2024/01/17 06:58:42;;;;;;;11.02;8.80;;;-2.20;99.90;;;;;;5035110;28;20532;-64
2024/01/17 07:01:10;;;;;;;10.40;9.10;;;-2.10;99.90;;;;;;5032192;28;20438;-64
2024/01/17 07:03:37;;;;;;;12.10;9.45;;;-2.10;99.90;;;;;;5029642;28;20414;-63
2024/01/17 07:06:06;;;;;;;10.40;9.30;;;-2.10;99.90;;;;;;5028908;28;20502;-64
2024/01/17 07:08:32;;;;;;;11.52;9.00;;;-2.10;99.90;;;;;;5026881;28;20415;-63
2024/01/17 07:10:59;;;;;;;9.80;8.60;;;-2.00;99.90;;;;;;5021536;28;20524;-63
2024/01/17 07:13:26;;;;;;;10.68;9.00;;;-2.00;99.90;;;;;;5021880;28;20426;-64
2024/01/17 07:15:53;;;;;;;10.53;8.70;;;-2.00;99.90;;;;;;5023457;28;20434;-63
2024/01/17 07:18:21;;;;;;;10.50;9.23;;;-2.00;99.90;;;;;;5027582;28;20411;-63
2024/01/17 07:20:49;;;;;;;9.73;8.70;;;-2.00;99.90;;;;;;5033114;28;20509;-63
2024/01/17 07:23:15;;;;;;;10.77;9.05;;;-2.00;99.90;;;;;;5026399;28;20484;-63
2024/01/17 07:25:44;;;;;;;12.53;8.97;;;-2.00;99.90;;;;;;5028729;28;20414;-63
2024/01/17 07:28:11;;;;;;;10.50;8.80;;;-2.00;99.90;;;;;;5029429;28;20418;-71
2024/01/17 07:30:37;;;;;;;10.30;8.60;;;-1.90;99.90;;;;;;5027084;28;20454;-65
2024/01/17 07:33:05;;;;;;;9.10;7.95;;;-1.90;99.90;;;;;;5028010;28;20411;-64
2024/01/17 07:35:33;;;;;;;9.70;8.35;;;-1.90;99.90;;;;;;5026232;28;20438;-64
2024/01/17 07:38:01;;;;;;;9.70;8.20;;;-1.90;99.90;;;;;;5028940;28;20398;-64
2024/01/17 07:40:28;;;;;;;8.70;7.07;;;-1.90;99.90;;;;;;5027374;28;20427;-64
2024/01/17 07:42:54;;;;;;;11.27;7.82;;;-1.90;99.90;;;;;;5022673;28;20447;-64
2024/01/17 07:45:21;;;;;;;8.77;7.32;;;-1.90;99.90;;;;;;5022899;28;20778;-64
2024/01/17 07:47:48;;;;;;;11.10;7.57;;;-1.80;99.90;;;;;;5028863;28;20917;-64
2024/01/17 07:50:15;;;;;;;10.10;8.00;;;-1.80;99.90;;;;;;5027547;28;20476;-64
2024/01/17 07:52:43;;;;;;;8.48;7.57;;;-1.80;99.90;;;;;;5028341;28;20415;-67
2024/01/17 07:55:10;;;;;;;8.63;7.70;;;-1.80;99.90;;;;;;5021951;28;20474;-64
2024/01/17 07:57:37;;;;;;;9.50;7.40;;;-1.70;99.90;;;;;;5029386;28;20427;-64
2024/01/17 08:00:05;;;;;;;9.77;8.18;;;-1.70;99.90;;;;;;5025943;28;20435;-64
2024/01/17 08:02:32;;;;;;;9.30;7.70;;;-1.70;99.90;;;;;;5028570;28;20537;-64
2024/01/17 08:04:59;;;;;;;10.82;8.10;;;-1.70;99.90;;;;;;5029931;28;20415;-64
2024/01/17 08:07:26;;;;;;;9.30;7.73;;;-1.60;99.90;;;;;;5023769;28;20464;-64
2024/01/17 08:09:55;;;;;;;8.10;7.30;;;-1.60;99.90;;;;;;5036864;28;20466;-64
2024/01/17 08:12:21;;;;;;;8.68;7.60;;;-1.60;99.90;;;;;;5028229;28;20881;-64
2024/01/17 08:14:48;;;;;;;9.00;7.90;;;-1.50;99.90;;;;;;5025096;28;20511;-65
2024/01/17 08:17:16;;;;;;;9.75;8.23;;;-1.50;99.90;;;;;;5027641;28;20437;-65
2024/01/17 08:19:42;;;;;;;8.93;7.90;;;-1.50;99.90;;;;;;5023717;28;20449;-65
2024/01/17 08:22:09;;;;;;;9.75;7.80;;;-1.40;99.90;;;;;;5021814;28;20416;-65
2024/01/17 08:24:36;;;;;;;8.80;7.45;;;-1.40;99.90;;;;;;5028166;28;21224;-65
2024/01/17 08:27:05;;;;;;;9.52;8.27;;;-1.40;99.90;;;;;;5029909;28;20413;-64
2024/01/17 08:29:32;;;;;;;8.52;7.72;;;-1.30;99.90;;;;;;5044310;28;20877;-65
2024/01/17 08:31:58;;;;;;;7.90;7.10;;;-1.30;99.90;;;;;;5043988;28;20546;-64
2024/01/17 08:34:25;;;;;;;9.68;7.93;;;-1.30;99.90;;;;;;5039762;28;20433;-64
2024/01/17 08:36:54;;;;;;;8.50;7.60;;;-1.30;99.90;;;;;;5045981;28;20419;-64
2024/01/17 08:39:21;;;;;;;11.33;7.93;;;-1.30;99.90;;;;;;5043714;28;20506;-64
2024/01/17 08:41:48;;;;;;;9.15;7.35;;;-1.30;99.90;;;;;;5035255;28;20419;-64
2024/01/17 08:44:16;;;;;;;10.40;7.60;;;-1.30;99.90;;;;;;5033509;28;20454;-64
2024/01/17 08:46:44;;;;;;;9.85;7.97;;;-1.20;99.90;;;;;;5028741;28;20435;-64
2024/01/17 08:49:10;;;;;;;9.65;7.50;;;-1.30;99.90;;;;;;5028392;28;20560;-64
2024/01/17 08:51:37;;;;;;;8.73;7.30;;;-1.20;99.90;;;;;;5025880;28;20468;-64
2024/01/17 08:54:04;;;;;;;9.00;7.20;;;-1.30;99.90;;;;;;5021692;28;20437;-64
2024/01/17 08:56:31;;;;;;;8.00;7.20;;;-1.20;99.90;;;;;;5024093;28;20419;-64
2024/01/17 08:58:58;;;;;;;8.85;7.20;;;-1.20;99.90;;;;;;5028182;28;20418;-66
2024/01/17 09:01:26;;;;;;;9.37;7.90;;;-1.20;99.90;;;;;;5031091;28;20403;-64
2024/01/17 09:03:55;;;;;;;12.57;8.80;;;-1.20;99.90;;;;;;5028591;28;20809;-64
2024/01/17 09:06:22;;;;;;;10.45;7.95;;;-1.10;99.90;;;;;;5026850;28;20818;-64
2024/01/17 09:08:49;;;;;;;9.32;7.68;;;-1.10;99.90;;;;;;5023584;28;20421;-63
2024/01/17 09:11:16;;;;;;;9.35;7.78;;;-1.10;99.90;;;;;;5025883;28;20425;-64
2024/01/17 09:13:43;;;;;;;8.00;7.20;;;-1.10;99.90;;;;;;5026667;28;20693;-63
2024/01/17 09:16:10;;;;;;;11.10;7.97;;;-1.10;99.90;;;;;;5025085;28;20414;-62
2024/01/17 09:18:38;;;;;;;9.35;7.90;;;-1.00;99.90;;;;;;5016530;28;20411;-63
2024/01/17 09:21:05;;;;;;;9.48;8.32;;;-1.00;99.90;;;;;;5027328;28;20505;-64
2024/01/17 09:23:32;;;;;;;9.18;8.18;;;-1.00;99.90;;;;;;5027319;28;20422;-63
2024/01/17 09:25:59;;;;;;;11.07;8.13;;;-1.00;99.90;;;;;;5025905;28;20506;-63
2024/01/17 09:28:26;;;;;;;11.23;7.90;;;-1.00;99.90;;;;;;5028168;28;20427;-63
2024/01/17 09:30:52;;;;;;;9.70;7.57;;;-0.90;99.90;;;;;;5028492;28;20426;-63
2024/01/17 09:33:19;;;;;;;9.43;8.00;;;-0.90;99.90;;;;;;5028344;28;20602;-63
2024/01/17 09:35:48;;;;;;;8.68;7.75;;;-0.90;99.90;;;;;;5026630;28;20957;-64
2024/01/17 09:38:15;;;;;;;9.38;7.80;;;-0.90;99.90;;;;;;5025878;28;20422;-62
2024/01/17 09:40:43;;;;;;;10.27;7.80;;;-0.90;99.90;;;;;;5028390;28;20419;-63
2024/01/17 09:43:10;;;;;;;9.40;7.90;;;-0.80;99.90;;;;;;5023609;28;20958;-64
2024/01/17 09:45:39;;;;;;;9.75;8.75;;;-0.80;99.90;;;;;;5016709;28;20411;-63
2024/01/17 09:48:07;;;;;;;9.73;8.70;;;-0.70;99.90;;;;;;5025609;28;20866;-63
2024/01/17 09:50:33;;;;;;;9.32;8.10;;;-0.70;99.90;;;;;;5023765;28;20850;-63
2024/01/17 09:53:04;;;;;;;9.45;8.45;;;-0.60;99.90;;;;;;5026706;28;20512;-66
2024/01/17 09:55:34;;;;;;;10.68;8.32;;;-0.60;99.90;;;;;;5026507;28;20432;-64
2024/01/17 09:58:02;;;;;;;11.65;8.73;;;-0.50;99.90;;;;;;5026735;28;20504;-64
2024/01/17 10:00:29;;;;;;;10.20;8.65;;;-0.50;99.90;;;;;;5025479;28;20442;-64
2024/01/17 10:02:56;;;;;;;8.82;7.93;;;-0.50;99.90;;;;;;5023012;28;20431;-64
2024/01/17 10:05:26;;;;;;;10.00;8.82;;;-0.50;99.90;;;;;;5029517;28;20461;-64
2024/01/17 10:07:55;;;;;;;9.90;8.90;;;-0.50;99.90;;;;;;5019099;28;20427;-63
2024/01/17 10:10:23;;;;;;;10.13;9.13;;;-0.50;99.90;;;;;;5012827;28;21053;-64
2024/01/17 10:12:51;;;;;;;10.43;8.60;;;-0.50;99.90;;;;;;5019625;28;20940;-66
2024/01/17 10:15:18;;;;;;;10.98;8.95;;;-0.50;99.90;;;;;;5018845;28;20684;-64
2024/01/17 10:17:45;;;;;;;10.07;9.07;;;-0.40;99.90;;;;;;5022917;28;20520;-64
2024/01/17 10:20:12;;;;;;;11.20;9.13;;;-0.40;99.90;;;;;;5020725;28;20437;-65
2024/01/17 10:22:41;;;;;;;13.10;10.70;;;-0.50;99.90;;;;;;5024710;28;20414;-64
2024/01/17 10:25:09;;;;;;;10.63;9.05;;;-0.40;99.90;;;;;;5022162;28;20446;-63
2024/01/17 10:27:37;;;;;;;8.98;8.18;;;-0.40;99.90;;;;;;5022815;28;20437;-63
2024/01/17 10:30:05;;;;;;;12.50;10.23;;;-0.40;99.90;;;;;;5024924;28;20439;-63
2024/01/17 10:32:32;;;;;;;10.57;9.25;;;-0.40;99.90;;;;;;5025637;28;20420;-64
2024/01/17 10:35:00;;;;;;;11.63;10.52;;;-0.30;99.90;;;;;;5026896;28;20426;-64
2024/01/17 10:37:27;;;;;;;11.60;10.40;;;-0.30;99.90;;;;;;5020114;28;20415;-63
2024/01/17 10:40:09;;;;;;;12.07;9.50;;;-0.30;99.90;;;;;;5022144;28;20415;-64
2024/01/17 10:42:37;;;;;;;10.30;9.20;;;-0.30;99.90;;;;;;5022772;28;20926;-64
2024/01/17 10:45:05;;;;;;;11.20;9.10;;;-0.30;99.90;;;;;;5024142;28;20435;-64
2024/01/17 10:47:32;;;;;;;11.53;9.00;;;-0.20;99.90;;;;;;5022289;28;20500;-63
2024/01/17 10:49:58;;;;;;;9.57;8.57;;;-0.20;99.90;;;;;;5020546;28;20430;-64
2024/01/17 10:52:28;;;;;;;11.20;9.40;;;-0.20;99.90;;;;;;5022098;28;20450;-62
2024/01/17 10:55:04;;;;;;;10.52;9.20;;;-0.20;99.90;;;;;;5018243;28;20430;-63
2024/01/17 10:57:34;;;;;;;9.98;8.90;;;-0.20;99.90;;;;;;5022708;28;20431;-64
2024/01/17 11:00:04;;;;;;;10.45;9.20;;;-0.10;99.90;;;;;;5022106;28;20439;-63
2024/01/17 11:02:32;;;;;;;11.48;9.30;;;-0.10;99.90;;;;;;5023920;28;20823;-64
2024/01/17 11:05:04;;;;;;;11.25;9.32;;;-0.10;99.90;;;;;;5023485;28;20782;-63
2024/01/17 11:07:32;;;;;;;9.83;8.83;;;0.00;99.90;;;;;;5024145;28;20467;-63
2024/01/17 11:10:02;;;;;;;10.30;9.23;;;-0.10;99.90;;;;;;5020129;28;20428;-63
2024/01/17 11:12:32;;;;;;;10.45;9.45;;;-0.10;99.90;;;;;;5035953;28;20435;-64
2024/01/17 11:15:01;;;;;;;11.18;10.07;;;-0.10;99.90;;;;;;5024029;28;20437;-62
2024/01/17 11:17:31;;;;;;;10.60;9.60;;;-0.10;99.90;;;;;;5022804;28;20768;-63
2024/01/17 11:20:00;;;;;;;10.70;9.60;;;-0.10;99.90;;;;;;5020102;28;20413;-63
2024/01/17 11:22:27;;;;;;;11.20;10.10;;;-0.10;99.90;;;;;;5021366;28;20439;-63
2024/01/17 11:25:01;;;;;;;10.98;9.88;;;-0.10;99.90;;;;;;5021342;28;20450;-62
2024/01/17 11:27:34;;;;;;;11.57;10.48;;;-0.10;99.90;;;;;;5019935;28;20439;-61
2024/01/17 11:30:11;;;;;;;13.65;10.85;;;-0.10;99.90;;;;;;5012263;28;20503;-63
2024/01/17 11:32:48;;;;;;;12.15;10.57;;;-0.10;99.90;;;;;;5024143;28;20480;-63
2024/01/17 11:35:42;;;;;;;10.75;9.65;;;-0.10;99.90;;;;;;5020482;28;20440;-63
2024/01/17 11:38:30;;;;;;;11.70;10.50;;;-0.10;99.90;;;;;;5014950;28;20481;-63
2024/01/17 11:41:00;;;;;;;11.05;9.95;;;-0.20;99.90;;;;;;5021872;28;20538;-63
2024/01/17 11:43:29;;;;;;;13.13;10.90;;;-0.20;99.90;;;;;;5019797;28;20435;-62
2024/01/17 11:45:59;;;;;;;13.48;11.60;;;-0.30;99.90;;;;;;5023863;28;20502;-63
2024/01/17 11:48:27;;;;;;;13.60;12.00;;;-0.30;99.90;;;;;;5018838;28;20449;-63
2024/01/17 11:51:05;;;;;;;13.50;12.20;;;-0.30;99.90;;;;;;5023066;28;20445;-63
2024/01/17 11:53:34;;;;;;;16.10;13.60;;;-0.30;99.90;;;;;;5022258;28;20410;-63
2024/01/17 11:56:03;;;;;;;15.15;13.60;;;-0.40;99.90;;;;;;5013622;28;20432;-64
2024/01/17 11:58:40;;;;;;;14.70;13.10;;;-0.40;99.90;;;;;;5019578;28;20450;-63
2024/01/17 12:01:10;;;;;;;16.13;13.82;;;-0.40;99.90;;;;;;5019520;28;20941;-62
2024/01/17 12:03:37;;;;;;;15.97;13.90;;;-0.40;99.90;;;;;;5023604;28;20425;-64
2024/01/17 12:06:04;;;;;;;17.63;14.88;;;-0.40;99.90;;;;;;5023746;28;20457;-64
2024/01/17 12:08:31;;;;;;;18.10;16.30;;;-0.40;99.90;;;;;;5021190;28;20843;-64
2024/01/17 12:10:58;;;;;;;18.20;16.17;;;-0.40;99.90;;;;;;5021979;28;20845;-63
2024/01/17 12:13:25;;;;;;;16.00;14.35;;;-0.40;99.90;;;;;;5020094;28;20440;-64
2024/01/17 12:15:55;;;;;;;17.90;16.00;;;-0.40;99.90;;;;;;5023671;28;20909;-64
2024/01/17 12:18:25;;;;;;;18.67;16.77;;;-0.40;99.90;;;;;;5024821;28;20403;-64
2024/01/17 12:20:54;;;;;;;17.80;15.55;;;-0.30;99.90;;;;;;5026400;28;20448;-64
2024/01/17 12:23:22;;;;;;;18.15;16.17;;;-0.30;99.90;;;;;;5025629;28;20441;-64
2024/01/17 12:25:49;;;;;;;17.67;15.55;;;-0.30;99.90;;;;;;5028431;28;20751;-64
2024/01/17 12:28:21;;;;;;;20.05;15.35;;;-0.30;99.90;;;;;;5029521;28;20427;-64
2024/01/17 12:30:58;;;;;;;16.90;15.10;;;-0.30;99.90;;;;;;5017452;28;20837;-64
2024/01/17 12:33:28;;;;;;;17.05;14.88;;;-0.30;99.90;;;;;;5027976;28;20538;-65
2024/01/17 12:35:56;;;;;;;19.98;15.23;;;-0.20;99.90;;;;;;5016332;28;20417;-65
2024/01/17 12:38:23;;;;;;;18.00;16.10;;;-0.30;99.90;;;;;;5025142;28;20440;-63
2024/01/17 12:40:51;;;;;;;19.10;16.20;;;-0.30;99.90;;;;;;5025159;28;20427;-65